Time;durP1;ratioP1;P1;durP2;ratioP2;P2;SDS_P1;SDS_P2;PMS_P1;PMS_P2;Temp;Humidity;BMP_temperature;BMP_pressure;BME280_temperature;BME280_humidity;BME280_pressure;Samples;Min_cycle;Max_cycle;Signal;HPM_P1;HPM_P2
2021/09/24 00:01:34;;;;;;;48.77;45.17;;;;;;;15.75;100.00;101902.36;1941030;74;33468;-69
2021/09/24 00:06:59;;;;;;;45.43;42.23;;;;;;;15.77;100.00;101890.30;1941098;74;33518;-79
2021/09/24 00:12:23;;;;;;;47.93;44.73;;;;;;;15.70;100.00;101898.79;1941020;74;31086;-78
2021/09/24 00:17:53;;;;;;;47.30;43.87;;;;;;;15.61;100.00;101895.79;1941207;74;33088;-79
2021/09/24 00:23:18;;;;;;;49.03;45.80;;;;;;;15.63;100.00;101882.30;1942870;74;33102;-69
2021/09/24 00:28:41;;;;;;;47.90;44.60;;;;;;;15.57;100.00;101879.30;1941137;74;33547;-70
2021/09/24 00:34:05;;;;;;;45.43;41.93;;;;;;;15.52;100.00;101869.53;1940992;74;33250;-71
2021/09/24 00:39:30;;;;;;;47.27;44.03;;;;;;;15.54;100.00;101872.02;1941057;74;33034;-70
2021/09/24 00:44:54;;;;;;;47.00;43.60;;;;;;;15.30;100.00;101870.53;1941103;74;33208;-70
2021/09/24 00:50:19;;;;;;;45.17;42.07;;;;;;;15.26;100.00;101868.88;1941108;74;33194;-70
2021/09/24 00:55:47;;;;;;;46.10;42.90;;;;;;;15.11;100.00;101868.14;1941137;74;33465;-79
2021/09/24 01:01:14;;;;;;;44.00;40.60;;;;;;;15.06;100.00;101852.22;1941073;74;32995;-70
2021/09/24 01:06:40;;;;;;;46.27;43.00;;;;;;;15.08;100.00;101848.58;1941149;74;33001;-70
2021/09/24 01:12:06;;;;;;;46.30;43.20;;;;;;;15.30;100.00;101848.13;1941070;74;33045;-78
2021/09/24 01:17:30;;;;;;;44.43;41.27;;;;;;;14.81;100.00;101854.63;1940885;74;33485;-70
2021/09/24 01:22:55;;;;;;;45.50;42.40;;;;;;;14.74;100.00;101851.89;1941080;74;33603;-79
2021/09/24 01:28:19;;;;;;;46.07;42.97;;;;;;;14.79;100.00;101845.71;1941115;74;33512;-70
2021/09/24 01:33:46;;;;;;;46.73;43.60;;;;;;;14.79;100.00;101844.87;1940960;74;33046;-69
2021/09/24 01:39:11;;;;;;;44.37;41.33;;;;;;;14.78;100.00;101833.40;1941089;74;33489;-79
2021/09/24 01:44:43;;;;;;;45.53;42.43;;;;;;;14.87;100.00;101839.50;1941092;74;32989;-69
2021/09/24 01:50:10;;;;;;;45.77;42.47;;;;;;;14.81;100.00;101833.66;1940824;74;33214;-70
2021/09/24 01:55:35;;;;;;;43.27;40.17;;;;;;;14.73;100.00;101821.68;1940764;74;32993;-70
2021/09/24 02:01:00;;;;;;;45.97;42.97;;;;;;;14.65;100.00;101817.27;1940869;74;32994;-78
2021/09/24 02:06:25;;;;;;;44.77;41.83;;;;;;;15.04;100.00;101810.55;1940846;74;32994;-70
2021/09/24 02:11:50;;;;;;;46.97;43.87;;;;;;;14.79;100.00;101811.30;1941087;74;33046;-69
2021/09/24 02:17:33;;;;;;;44.57;41.50;;;;;;;14.97;100.00;101813.42;2009783;71;32926;-78
2021/09/24 02:23:05;;;;;;;43.77;40.77;;;;;;;14.88;100.00;101812.36;1940806;74;33076;-69
2021/09/24 02:28:28;;;;;;;44.40;41.50;;;;;;;14.99;100.00;101815.34;1940974;74;32998;-79
2021/09/24 02:33:52;;;;;;;44.57;41.57;;;;;;;14.89;100.00;101812.05;1940911;74;33038;-79
2021/09/24 02:39:17;;;;;;;45.97;42.97;;;;;;;14.93;100.00;101809.53;1940838;74;33006;-79
2021/09/24 02:44:41;;;;;;;47.03;43.83;;;;;;;14.90;100.00;101804.50;1941006;74;32992;-70
2021/09/24 02:50:09;;;;;;;45.17;42.13;;;;;;;14.69;100.00;101810.80;1941050;74;33478;-70
2021/09/24 02:55:53;;;;;;;44.20;41.10;;;;;;;14.75;100.00;101812.45;2009667;71;32824;-69
2021/09/24 03:01:18;;;;;;;45.17;42.00;;;;;;;14.64;100.00;101812.78;1940803;74;33112;-79
2021/09/24 03:06:42;;;;;;;46.00;42.73;;;;;;;14.73;100.00;101819.44;1941013;74;33095;-69
2021/09/24 03:12:07;;;;;;;44.90;41.70;;;;;;;14.82;100.00;101811.55;1941055;74;33518;-70
2021/09/24 03:17:32;;;;;;;48.83;45.03;;;;;;;14.84;100.00;101812.67;1941061;74;33065;-70
2021/09/24 03:22:57;;;;;;;47.53;43.83;;;;;;;14.86;100.00;101801.45;1941060;74;33466;-79
2021/09/24 03:28:21;;;;;;;48.90;45.10;;;;;;;14.84;100.00;101811.27;1940860;74;33034;-79
2021/09/24 03:33:46;;;;;;;49.63;45.73;;;;;;;14.71;100.00;101808.56;1941109;74;33541;-79
2021/09/24 03:39:13;;;;;;;50.33;46.57;;;;;;;14.71;100.00;101804.37;1940850;74;32978;-69
2021/09/24 03:44:39;;;;;;;49.03;45.23;;;;;;;14.78;100.00;101797.04;1940800;74;33079;-69
2021/09/24 03:50:04;;;;;;;49.67;45.97;;;;;;;14.71;100.00;101800.73;1940888;74;33056;-70
2021/09/24 03:55:29;;;;;;;50.33;46.43;;;;;;;14.62;100.00;101794.08;1941146;74;32984;-79
2021/09/24 04:01:13;;;;;;;49.63;46.03;;;;;;;14.62;100.00;101799.67;1972873;71;39599;-69
2021/09/24 04:06:38;;;;;;;50.00;46.20;;;;;;;14.57;100.00;101794.38;1941063;74;32982;-70
2021/09/24 04:12:02;;;;;;;48.37;44.80;;;;;;;14.61;100.00;101794.64;1941155;74;33522;-70
2021/09/24 04:17:26;;;;;;;47.87;44.23;;;;;;;14.62;100.00;101794.91;1940863;74;32978;-70
2021/09/24 04:23:10;;;;;;;47.70;44.00;;;;;;;14.67;100.00;101799.64;2009849;71;32980;-70
2021/09/24 04:28:36;;;;;;;48.43;44.73;;;;;;;14.62;100.00;101793.52;1940938;74;33084;-79
2021/09/24 04:34:00;;;;;;;49.13;45.33;;;;;;;14.61;100.00;101792.40;1941076;74;32991;-78
2021/09/24 04:39:25;;;;;;;48.93;45.07;;;;;;;14.75;100.00;101784.48;1941028;74;33065;-79
2021/09/24 04:44:49;;;;;;;50.67;46.93;;;;;;;14.76;100.00;101776.34;1940948;74;32967;-79
2021/09/24 04:50:14;;;;;;;46.37;42.87;;;;;;;14.73;100.00;101766.30;1941020;74;32983;-79
2021/09/24 04:55:38;;;;;;;48.37;44.73;;;;;;;14.82;100.00;101775.19;1940882;74;32994;-78
2021/09/24 05:01:09;;;;;;;47.90;44.50;;;;;;;14.77;100.00;101782.21;1940910;74;32985;-79
2021/09/24 05:06:33;;;;;;;49.63;46.23;;;;;;;14.81;100.00;101779.10;1940925;74;32982;-79
2021/09/24 05:11:59;;;;;;;48.23;44.67;;;;;;;14.81;100.00;101772.67;1941089;74;33522;-68
2021/09/24 05:17:24;;;;;;;47.70;44.30;;;;;;;14.80;100.00;101767.67;1940994;74;32970;-70
2021/09/24 05:22:55;;;;;;;45.87;42.57;;;;;;;14.80;100.00;101750.89;1941111;74;33484;-67
2021/09/24 05:28:19;;;;;;;47.67;44.20;;;;;;;14.85;100.00;101742.42;1941194;74;33490;-70
2021/09/24 05:33:44;;;;;;;44.60;41.50;;;;;;;14.90;100.00;101746.59;1941081;74;33570;-70
2021/09/24 05:39:08;;;;;;;44.60;41.37;;;;;;;14.91;100.00;101746.87;1941134;74;32988;-70
2021/09/24 05:44:33;;;;;;;46.30;42.90;;;;;;;14.87;100.00;101738.79;1941110;74;32981;-78
2021/09/24 05:49:58;;;;;;;46.27;43.17;;;;;;;14.87;100.00;101737.39;1941141;74;33069;-78
2021/09/24 05:55:24;;;;;;;46.23;43.03;;;;;;;14.94;100.00;101741.23;1941024;74;33120;-78
2021/09/24 06:00:55;;;;;;;48.97;45.37;;;;;;;15.00;100.00;101749.31;1941104;74;33540;-70
2021/09/24 06:06:20;;;;;;;46.97;43.77;;;;;;;14.95;100.00;101746.55;1940909;74;33064;-70
2021/09/24 06:11:45;;;;;;;49.67;46.27;;;;;;;14.97;100.00;101744.87;1940898;74;33100;-79
2021/09/24 06:17:11;;;;;;;46.57;43.30;;;;;;;14.96;100.00;101741.23;1941002;74;33041;-80
2021/09/24 06:22:36;;;;;;;49.77;46.27;;;;;;;14.91;100.00;101747.42;1940939;74;33012;-71
2021/09/24 06:28:02;;;;;;;48.20;44.70;;;;;;;14.88;100.00;101745.22;1941343;74;33034;-76
2021/09/24 06:33:27;;;;;;;49.57;45.83;;;;;;;14.95;100.00;101750.75;1941352;74;33502;-76
2021/09/24 06:38:51;;;;;;;49.83;46.13;;;;;;;15.00;100.00;101743.72;1940908;74;32965;-72
2021/09/24 06:44:15;;;;;;;50.83;47.07;;;;;;;14.90;100.00;101735.40;1940956;74;32988;-80
2021/09/24 06:49:40;;;;;;;48.43;44.77;;;;;;;14.97;100.00;101747.67;1941174;74;33060;-79
2021/09/24 06:55:07;;;;;;;47.23;43.83;;;;;;;14.97;100.00;101730.28;1941156;74;33439;-78
2021/09/24 07:00:31;;;;;;;47.63;44.43;;;;;;;14.93;100.00;101720.01;1940945;74;32975;-79
2021/09/24 07:05:55;;;;;;;46.40;42.90;;;;;;;15.09;100.00;101731.33;1940896;74;33088;-78
2021/09/24 07:11:22;;;;;;;44.50;41.40;;;;;;;15.11;100.00;101729.61;1941069;74;33049;-69
2021/09/24 07:16:48;;;;;;;46.97;43.67;;;;;;;15.08;100.00;101728.25;1941076;74;33497;-70
2021/09/24 07:22:12;;;;;;;50.15;46.80;;;;;;;15.15;100.00;101732.92;1925039;74;28142;-69
2021/09/24 07:27:37;;;;;;;47.37;44.27;;;;;;;15.30;100.00;101724.95;1941054;74;33605;-69
2021/09/24 07:33:02;;;;;;;47.40;44.20;;;;;;;15.42;100.00;101732.38;1940906;74;33052;-69
2021/09/24 07:38:27;;;;;;;46.60;43.50;;;;;;;15.31;100.00;101735.03;1940944;74;33056;-69
2021/09/24 07:43:53;;;;;;;45.93;42.90;;;;;;;15.41;100.00;101716.71;1941116;74;33166;-78
2021/09/24 07:49:18;;;;;;;44.23;41.43;;;;;;;15.52;100.00;101723.08;1940908;74;32993;-78
2021/09/24 07:54:42;;;;;;;48.80;45.80;;;;;;;15.43;100.00;101732.66;1940886;74;32994;-69
2021/09/24 08:00:10;;;;;;;43.10;40.20;;;;;;;15.61;100.00;101733.34;1940991;74;33041;-78
2021/09/24 08:05:35;;;;;;;44.40;41.20;;;;;;;15.69;100.00;101731.28;1941065;74;33477;-69
2021/09/24 08:11:01;;;;;;;44.27;41.03;;;;;;;15.70;100.00;101733.52;1941074;74;33519;-78
2021/09/24 08:16:25;;;;;;;43.37;40.47;;;;;;;16.07;100.00;101728.56;1941105;74;33030;-75
2021/09/24 08:21:56;;;;;;;42.87;40.00;;;;;;;16.16;100.00;101720.58;1940865;74;31228;-69
2021/09/24 08:27:20;;;;;;;44.93;41.97;;;;;;;15.95;100.00;101731.80;1941244;74;31056;-78
2021/09/24 08:32:45;;;;;;;47.53;44.27;;;;;;;15.96;100.00;101724.23;1941062;74;31148;-78
2021/09/24 08:38:13;;;;;;;45.60;42.30;;;;;;;16.23;100.00;101739.82;1940855;74;31038;-78
2021/09/24 08:43:38;;;;;;;43.47;40.57;;;;;;;16.13;100.00;101742.19;1941067;74;31625;-76
2021/09/24 08:49:04;;;;;;;46.10;42.87;;;;;;;16.39;100.00;101735.09;1940977;74;31178;-69
2021/09/24 08:54:28;;;;;;;43.33;40.43;;;;;;;16.47;100.00;101735.56;1940898;74;31117;-69
2021/09/24 08:59:53;;;;;;;45.53;42.63;;;;;;;16.76;100.00;101730.08;1941149;74;31063;-78
2021/09/24 09:05:18;;;;;;;46.60;43.23;;;;;;;16.62;100.00;101728.34;1941140;74;31066;-76
2021/09/24 09:10:52;;;;;;;43.60;40.57;;;;;;;16.78;100.00;101726.95;1941141;74;31127;-77
2021/09/24 09:16:19;;;;;;;44.77;41.53;;;;;;;17.02;100.00;101725.44;1940997;74;31055;-78
2021/09/24 09:21:47;;;;;;;45.13;41.87;;;;;;;16.92;100.00;101721.39;1941003;74;31038;-79
2021/09/24 09:27:21;;;;;;;45.43;42.53;;;;;;;17.07;100.00;101710.72;1940870;74;31145;-68
2021/09/24 09:33:05;;;;;;;45.33;42.03;;;;;;;17.22;100.00;101709.06;1941137;74;31115;-79
2021/09/24 09:38:35;;;;;;;43.27;40.37;;;;;;;17.29;100.00;101719.30;1941080;74;31183;-79
2021/09/24 09:44:02;;;;;;;40.63;37.93;;;;;;;17.48;100.00;101719.24;1941015;74;31052;-79
2021/09/24 09:49:29;;;;;;;40.70;37.97;;;;;;;17.57;100.00;101720.76;1940892;74;31208;-78
2021/09/24 09:55:04;;;;;;;39.40;36.80;;;;;;;17.74;100.00;101721.01;1940927;74;31032;-70
2021/09/24 10:00:32;;;;;;;39.73;37.03;;;;;;;17.73;100.00;101717.92;1940924;74;31128;-70
2021/09/24 10:06:03;;;;;;;40.20;37.50;;;;;;;17.64;100.00;101715.58;1941097;74;33490;-69
2021/09/24 10:11:33;;;;;;;38.70;36.30;;;;;;;17.83;100.00;101707.89;1940926;74;31036;-69
2021/09/24 10:16:59;;;;;;;37.83;35.33;;;;;;;17.77;100.00;101704.08;1940960;74;31064;-78
2021/09/24 10:22:25;;;;;;;37.43;35.13;;;;;;;17.86;100.00;101688.15;1940930;74;31022;-69
2021/09/24 10:27:51;;;;;;;37.97;35.37;;;;;;;18.02;100.00;101690.31;1940981;74;31017;-78
2021/09/24 10:33:18;;;;;;;37.57;35.17;;;;;;;18.15;100.00;101682.42;1941091;74;31010;-69
2021/09/24 10:38:46;;;;;;;38.10;35.83;;;;;;;18.02;100.00;101682.45;1940911;74;31045;-70
2021/09/24 10:44:11;;;;;;;38.80;36.30;;;;;;;18.07;100.00;101673.33;1941438;74;31022;-76
2021/09/24 10:49:35;;;;;;;38.60;36.20;;;;;;;18.18;100.00;101663.50;1940964;74;31130;-78
2021/09/24 10:55:07;;;;;;;40.93;38.07;;;;;;;18.24;100.00;101661.41;1941130;74;33482;-69
2021/09/24 11:00:49;;;;;;;40.97;38.30;;;;;;;18.26;100.00;101654.91;1941116;74;31121;-78
2021/09/24 11:06:16;;;;;;;37.87;35.47;;;;;;;18.36;100.00;101647.61;1940950;74;31024;-69
2021/09/24 11:11:43;;;;;;;37.73;35.13;;;;;;;18.65;100.00;101641.61;1940923;74;31104;-76
2021/09/24 11:17:49;;;;;;;35.40;33.20;;;;;;;18.88;100.00;101641.82;1941107;74;33484;-75
2021/09/24 11:23:37;;;;;;;33.60;31.30;;;;;;;19.03;100.00;101631.58;1907756;75;31549;-75
2021/09/24 11:29:12;;;;;;;35.90;33.70;;;;;;;19.13;100.00;101613.55;1941156;74;33477;-75
2021/09/24 11:35:04;;;;;;;32.83;31.03;;;;;;;19.30;100.00;101607.15;1941019;74;31013;-74
2021/09/24 11:40:31;;;;;;;33.20;31.30;;;;;;;19.51;100.00;101591.38;1941178;74;31134;-70
2021/09/24 11:45:58;;;;;;;34.30;32.30;;;;;;;19.45;100.00;101590.68;1941142;74;31509;-69
2021/09/24 11:51:26;;;;;;;32.80;30.83;;;;;;;19.70;100.00;101580.62;1941010;74;31041;-78
2021/09/24 11:56:54;;;;;;;32.47;30.67;;;;;;;20.10;100.00;101576.27;1940938;74;31034;-79
2021/09/24 12:02:23;;;;;;;32.70;30.80;;;;;;;19.85;100.00;101568.85;1941156;74;31542;-77
2021/09/24 12:07:54;;;;;;;29.47;27.87;;;;;;;19.97;100.00;101565.39;1940990;74;31115;-69
2021/09/24 12:13:23;;;;;;;29.27;27.47;;;;;;;20.04;100.00;101564.88;1941071;74;31022;-71
2021/09/24 12:18:55;;;;;;;28.17;26.57;;;;;;;20.17;100.00;101560.48;1941303;74;31473;-70
2021/09/24 12:24:28;;;;;;;27.57;26.07;;;;;;;20.19;100.00;101565.81;1941175;74;33502;-76
2021/09/24 12:30:12;;;;;;;28.20;26.60;;;;;;;20.26;100.00;101561.89;1940941;74;31102;-69
2021/09/24 12:35:37;;;;;;;28.73;27.03;;;;;;;20.34;100.00;101542.74;1941225;74;31528;-71
2021/09/24 12:41:20;;;;;;;30.87;29.17;;;;;;;20.45;100.00;101553.34;1941162;74;31077;-70
2021/09/24 12:46:47;;;;;;;29.67;27.77;;;;;;;20.70;100.00;101550.23;1941189;74;31023;-71
2021/09/24 12:52:12;;;;;;;30.03;28.10;;;;;;;20.73;100.00;101549.55;1941098;74;31500;-74
2021/09/24 12:57:37;;;;;;;28.77;27.17;;;;;;;20.90;100.00;101532.55;1941153;74;31067;-75
2021/09/24 13:03:26;;;;;;;28.40;26.90;;;;;;;20.84;100.00;101515.53;2009957;71;30862;-75
2021/09/24 13:08:54;;;;;;;32.17;30.47;;;;;;;21.10;100.00;101510.34;1941037;74;31500;-69
2021/09/24 13:14:19;;;;;;;30.97;29.37;;;;;;;20.95;100.00;101515.17;1941051;74;31503;-70
2021/09/24 13:19:44;;;;;;;26.57;25.13;;;;;;;21.16;100.00;101502.80;1941149;74;31107;-75
2021/09/24 13:25:12;;;;;;;28.37;26.87;;;;;;;21.10;100.00;101501.29;1941213;74;31081;-75
2021/09/24 13:30:43;;;;;;;30.15;28.50;;;;;;;21.10;100.00;101498.46;1941060;74;31501;-70
2021/09/24 13:36:07;;;;;;;28.53;27.00;;;;;;;21.12;100.00;101505.20;1941320;74;31507;-76
2021/09/24 13:41:32;;;;;;;28.80;27.00;;;;;;;21.18;100.00;101492.58;1940891;74;31008;-71
2021/09/24 13:46:56;;;;;;;28.03;26.43;;;;;;;21.25;100.00;101487.20;1940947;74;30999;-70
2021/09/24 13:52:20;;;;;;;30.07;28.47;;;;;;;21.27;100.00;101479.20;1941021;74;31007;-70
2021/09/24 13:57:45;;;;;;;30.32;28.73;;;;;;;21.27;100.00;101473.55;1941182;74;31016;-77
2021/09/24 14:03:11;;;;;;;28.97;27.37;;;;;;;21.55;100.00;101466.21;1940942;74;31142;-70
2021/09/24 14:08:36;;;;;;;30.45;28.92;;;;;;;21.30;100.00;101458.75;1941015;74;31075;-68
2021/09/24 14:14:00;;;;;;;31.20;29.50;;;;;;;21.33;100.00;101458.89;1941132;74;31030;-74
2021/09/24 14:19:30;;;;;;;30.43;28.73;;;;;;;21.31;100.00;101449.08;1941125;74;31513;-76
2021/09/24 14:24:57;;;;;;;31.80;30.20;;;;;;;21.27;100.00;101445.28;1940980;74;31024;-75
2021/09/24 14:30:23;;;;;;;29.77;28.07;;;;;;;21.27;100.00;101433.40;1940916;74;31179;-70
2021/09/24 14:35:48;;;;;;;32.45;30.72;;;;;;;21.56;100.00;101432.53;1941109;74;31017;-76
2021/09/24 14:41:12;;;;;;;31.87;30.03;;;;;;;21.66;100.00;101429.27;1941184;74;31563;-70
2021/09/24 14:46:38;;;;;;;30.52;28.67;;;;;;;21.49;100.00;101428.58;1941047;74;31126;-68
2021/09/24 14:52:02;;;;;;;30.07;28.47;;;;;;;21.42;100.00;101431.97;1941027;74;31020;-69
2021/09/24 14:57:27;;;;;;;30.32;28.42;;;;;;;21.60;100.00;101430.66;1941100;74;31608;-70
2021/09/24 15:02:51;;;;;;;32.28;30.25;;;;;;;21.69;100.00;101424.32;1941126;74;31032;-70
2021/09/24 15:08:15;;;;;;;30.80;29.18;;;;;;;21.78;100.00;101423.66;1941131;74;31076;-70
2021/09/24 15:13:39;;;;;;;31.27;29.65;;;;;;;21.55;100.00;101417.31;1941208;74;31017;-75
2021/09/24 15:19:04;;;;;;;30.25;28.65;;;;;;;21.62;100.00;101415.58;1941126;74;31573;-70
2021/09/24 15:24:29;;;;;;;30.52;28.83;;;;;;;21.75;100.00;101412.22;1940942;74;31099;-76
2021/09/24 15:29:54;;;;;;;31.63;29.93;;;;;;;21.99;100.00;101409.50;1940972;74;31102;-70
2021/09/24 15:35:19;;;;;;;31.70;29.90;;;;;;;21.79;100.00;101409.77;1941116;74;31122;-69
2021/09/24 15:40:47;;;;;;;31.75;29.95;;;;;;;21.84;100.00;101412.97;1941085;74;31583;-69
2021/09/24 15:46:11;;;;;;;31.30;29.30;;;;;;;21.99;100.00;101413.75;1941169;74;31539;-70
2021/09/24 15:51:37;;;;;;;32.50;30.80;;;;;;;21.91;100.00;101409.56;1940979;74;31018;-76
2021/09/24 15:57:04;;;;;;;32.55;30.88;;;;;;;21.88;100.00;101418.17;1941126;74;31085;-70
2021/09/24 16:02:29;;;;;;;32.03;30.43;;;;;;;21.82;100.00;101417.33;1941137;74;31014;-69
2021/09/24 16:07:53;;;;;;;32.45;30.75;;;;;;;21.85;100.00;101410.97;1940978;74;31139;-77
2021/09/24 16:13:19;;;;;;;33.63;31.52;;;;;;;21.88;100.00;101413.09;1941034;74;31028;-71
2021/09/24 16:18:43;;;;;;;33.92;31.62;;;;;;;21.89;100.00;101411.34;1941095;74;31609;-76
2021/09/24 16:24:09;;;;;;;33.28;31.02;;;;;;;21.86;100.00;101404.98;1941068;74;31015;-68
2021/09/24 16:29:34;;;;;;;32.73;30.85;;;;;;;21.93;100.00;101412.91;1941198;74;31014;-76
2021/09/24 16:34:59;;;;;;;33.45;31.30;;;;;;;22.03;100.00;101419.56;1941162;74;31588;-75
2021/09/24 16:40:23;;;;;;;33.58;31.48;;;;;;;22.04;100.00;101414.12;1941107;74;31078;-68
2021/09/24 16:45:54;;;;;;;34.30;32.42;;;;;;;22.05;100.00;101415.19;1941210;74;31500;-75
2021/09/24 16:51:18;;;;;;;34.88;32.90;;;;;;;22.01;100.00;101416.23;1941203;74;31011;-70
2021/09/24 16:56:42;;;;;;;34.40;32.50;;;;;;;22.05;100.00;101420.85;1941033;74;30999;-76
2021/09/24 17:02:07;;;;;;;35.45;33.55;;;;;;;21.98;100.00;101424.02;1929358;72;30979;-72
2021/09/24 17:07:31;;;;;;;35.43;33.30;;;;;;;21.89;100.00;101429.73;1940991;74;31119;-73
2021/09/24 17:12:57;;;;;;;36.33;34.13;;;;;;;21.92;100.00;101424.81;1941041;74;31696;-72
2021/09/24 17:18:42;;;;;;;38.08;35.92;;;;;;;21.91;100.00;101432.19;2009376;71;30858;-72
2021/09/24 17:24:26;;;;;;;35.55;33.18;;;;;;;22.03;100.00;101433.70;2004409;71;30807;-73
2021/09/24 17:29:52;;;;;;;35.55;33.55;;;;;;;21.97;100.00;101433.67;1940801;74;31109;-70
2021/09/24 17:35:23;;;;;;;34.67;32.53;;;;;;;21.87;100.00;101430.65;1941007;74;31488;-72
2021/09/24 17:40:51;;;;;;;34.63;32.63;;;;;;;21.69;100.00;101432.80;1940708;74;31079;-71
2021/09/24 17:46:14;;;;;;;35.43;33.10;;;;;;;21.52;100.00;101438.61;1940796;74;31157;-72
2021/09/24 17:51:39;;;;;;;37.83;35.43;;;;;;;21.45;100.00;101450.23;1940811;74;31081;-72
2021/09/24 17:57:06;;;;;;;36.98;34.67;;;;;;;21.40;100.00;101457.50;1941109;74;31631;-72
2021/09/24 18:02:30;;;;;;;39.03;36.30;;;;;;;21.29;100.00;101450.86;1940989;74;31526;-72
2021/09/24 18:08:14;;;;;;;37.55;35.23;;;;;;;21.23;100.00;101459.28;2007395;71;30870;-72
2021/09/24 18:13:39;;;;;;;38.02;35.73;;;;;;;21.16;100.00;101476.53;1940864;74;31070;-72
2021/09/24 18:19:03;;;;;;;37.83;35.53;;;;;;;21.12;100.00;101479.22;1941030;74;31263;-72
2021/09/24 18:24:28;;;;;;;37.45;35.05;;;;;;;21.01;100.00;101477.91;1940761;74;31119;-72
2021/09/24 18:29:53;;;;;;;37.63;35.23;;;;;;;20.85;100.00;101484.72;1940834;74;31054;-73
2021/09/24 18:35:18;;;;;;;36.75;34.65;;;;;;;20.80;100.00;101492.54;1940997;74;31518;-71
2021/09/24 18:40:44;;;;;;;37.40;34.97;;;;;;;20.75;100.00;101492.14;1940817;74;31142;-71
2021/09/24 18:46:08;;;;;;;35.77;33.33;;;;;;;20.63;100.00;101493.44;1940818;74;31017;-74
2021/09/24 18:51:34;;;;;;;36.00;33.63;;;;;;;20.59;100.00;101500.09;1940999;74;31531;-74
2021/09/24 18:56:59;;;;;;;36.93;34.53;;;;;;;20.49;100.00;101508.37;1940795;74;31107;-74
2021/09/24 19:02:24;;;;;;;37.10;34.70;;;;;;;20.44;100.00;101507.96;1941101;74;31200;-73
2021/09/24 19:07:48;;;;;;;38.57;36.03;;;;;;;20.38;100.00;101512.69;1940947;74;31022;-73
2021/09/24 19:13:14;;;;;;;37.60;34.97;;;;;;;20.32;100.00;101519.69;1940968;74;31532;-74
2021/09/24 19:18:39;;;;;;;36.73;34.30;;;;;;;20.22;100.00;101520.00;1940810;74;31215;-74
2021/09/24 19:24:04;;;;;;;37.65;35.25;;;;;;;20.20;100.00;101513.84;1941125;74;31071;-74
2021/09/24 19:29:29;;;;;;;38.73;36.03;;;;;;;20.07;100.00;101524.75;1940976;74;31609;-75
2021/09/24 19:34:54;;;;;;;38.97;36.47;;;;;;;20.00;100.00;101521.84;1940818;74;31090;-73
2021/09/24 19:40:20;;;;;;;38.90;36.47;;;;;;;19.91;100.00;101529.47;1940863;74;31033;-74
2021/09/24 19:45:45;;;;;;;39.77;37.20;;;;;;;19.81;100.00;101537.45;1940776;74;31051;-74
2021/09/24 19:51:11;;;;;;;40.37;37.67;;;;;;;19.73;100.00;101536.83;1941043;74;31547;-72
2021/09/24 19:56:36;;;;;;;41.27;38.57;;;;;;;19.71;100.00;101546.22;1940791;74;31153;-73
2021/09/24 20:02:00;;;;;;;40.77;37.87;;;;;;;19.61;100.00;101548.77;1940803;74;31113;-72
2021/09/24 20:10:30;;;;;;;41.83;38.73;;;;;;;19.45;100.00;101550.39;2061108;69;30548;-77
2021/09/24 20:13:00;;;;;;;42.03;39.10;;;;;;;19.36;100.00;101555.98;1950544;73;24202;-76
2021/09/24 20:15:31;;;;;;;41.37;38.17;;;;;;;19.35;100.00;101557.70;2030441;71;24109;-75
2021/09/24 20:18:01;;;;;;;40.70;37.70;;;;;;;19.20;100.00;101563.80;2030722;70;24117;-75
2021/09/24 20:20:34;;;;;;;41.93;39.13;;;;;;;19.11;100.00;101551.09;2030407;71;24178;-74
2021/09/24 20:23:04;;;;;;;40.77;37.93;;;;;;;19.19;100.00;101553.11;1996341;70;24227;-79
2021/09/24 20:25:35;;;;;;;41.73;38.87;;;;;;;19.25;100.00;101550.98;1993502;72;24758;-77
2021/09/24 20:28:06;;;;;;;40.90;37.87;;;;;;;19.25;100.00;101556.61;1993601;72;24171;-74
2021/09/24 20:30:36;;;;;;;40.87;37.97;;;;;;;19.25;100.00;101561.67;1993444;72;24198;-73
2021/09/24 20:33:08;;;;;;;40.03;37.03;;;;;;;19.30;100.00;101557.84;1993385;72;24650;-74
2021/09/24 20:35:40;;;;;;;40.73;37.63;;;;;;;19.35;100.00;101561.93;1993452;72;24114;-74
2021/09/24 20:38:10;;;;;;;39.50;36.70;;;;;;;19.40;100.00;101563.19;1993446;72;24581;-72
2021/09/24 20:40:41;;;;;;;40.87;37.87;;;;;;;19.38;100.00;101565.52;1993401;72;24144;-74
2021/09/24 20:43:11;;;;;;;41.87;39.07;;;;;;;19.38;100.00;101567.73;1993316;72;26669;-75
2021/09/24 20:45:41;;;;;;;43.37;40.47;;;;;;;19.27;100.00;101565.55;1993511;72;24199;-75
2021/09/24 20:48:12;;;;;;;42.60;39.43;;;;;;;19.14;100.00;101576.35;1993435;72;24134;-75
2021/09/24 20:50:42;;;;;;;42.27;39.43;;;;;;;19.02;100.00;101573.59;1993668;72;24134;-74
2021/09/24 20:53:12;;;;;;;42.17;39.37;;;;;;;18.94;100.00;101574.95;1993534;72;24195;-75
2021/09/24 20:58:37;;;;;;;42.27;39.27;;;;;;;19.04;100.00;101565.63;1940984;74;31151;-74
2021/09/24 21:04:01;;;;;;;42.53;39.63;;;;;;;19.17;100.00;101559.63;1941111;74;31577;-75
2021/09/24 21:09:25;;;;;;;41.53;38.63;;;;;;;19.20;100.00;101559.58;1940962;74;31653;-76
2021/09/24 21:14:50;;;;;;;40.13;37.23;;;;;;;19.32;100.00;101560.61;1940920;74;31052;-75
2021/09/24 21:20:15;;;;;;;41.40;38.40;;;;;;;19.31;100.00;101557.53;1940821;74;31194;-74
2021/09/24 21:25:40;;;;;;;39.90;37.10;;;;;;;19.29;100.00;101564.66;1940945;74;33547;-75
2021/09/24 21:31:10;;;;;;;39.87;36.97;;;;;;;19.31;100.00;101566.55;1940897;74;31165;-75
2021/09/24 21:36:35;;;;;;;41.43;38.53;;;;;;;19.32;100.00;101571.05;1940784;74;31055;-76
2021/09/24 21:41:59;;;;;;;41.20;38.50;;;;;;;19.18;100.00;101566.93;1940759;74;31550;-72
2021/09/24 21:47:24;;;;;;;42.67;39.67;;;;;;;19.19;100.00;101572.83;1941034;74;31048;-71
2021/09/24 21:52:50;;;;;;;43.73;40.73;;;;;;;18.99;100.00;101581.28;1940803;74;31134;-72
2021/09/24 21:58:14;;;;;;;43.10;40.00;;;;;;;18.99;100.00;101588.33;1940773;74;31048;-72
2021/09/24 22:03:39;;;;;;;42.97;39.97;;;;;;;18.91;100.00;101595.32;1940879;74;31254;-72
2021/09/24 22:09:03;;;;;;;45.67;42.37;;;;;;;18.67;100.00;101599.05;1940754;74;31141;-71
2021/09/24 22:14:28;;;;;;;49.57;46.03;;;;;;;18.62;100.00;101585.94;1940977;74;33467;-71
2021/09/24 22:19:51;;;;;;;49.10;45.90;;;;;;;18.87;100.00;101592.90;1940790;74;31039;-71
2021/09/24 22:25:20;;;;;;;50.73;47.53;;;;;;;18.75;100.00;101593.47;1940850;74;31034;-71
2021/09/24 22:30:44;;;;;;;51.53;48.43;;;;;;;18.51;100.00;101602.23;1940922;74;31615;-73
2021/09/24 22:36:10;;;;;;;52.40;49.10;;;;;;;18.53;100.00;101604.17;1940950;74;33443;-72
2021/09/24 22:41:35;;;;;;;50.00;46.90;;;;;;;18.48;100.00;101603.46;1940854;74;31050;-71
2021/09/24 22:47:20;;;;;;;51.07;47.83;;;;;;;18.55;100.00;101607.52;2009764;71;30935;-74
2021/09/24 22:52:45;;;;;;;51.40;48.00;;;;;;;18.44;100.00;101614.50;1940817;74;31033;-71
2021/09/24 22:58:09;;;;;;;52.60;49.30;;;;;;;18.46;100.00;101607.99;1940857;74;33118;-71
2021/09/24 23:03:34;;;;;;;49.10;46.00;;;;;;;18.48;100.00;101616.92;1941016;74;31561;-71
2021/09/24 23:08:58;;;;;;;50.10;46.90;;;;;;;18.33;100.00;101617.89;1940911;74;31514;-71
2021/09/24 23:14:23;;;;;;;49.90;46.57;;;;;;;18.31;100.00;101611.20;1940929;74;31609;-72
2021/09/24 23:19:47;;;;;;;52.20;48.90;;;;;;;18.23;100.00;101609.13;1940830;74;31117;-72
2021/09/24 23:25:12;;;;;;;51.87;48.57;;;;;;;18.05;100.00;101608.73;1941003;74;31156;-72
2021/09/24 23:30:37;;;;;;;51.60;48.20;;;;;;;17.92;100.00;101604.81;1940870;74;31191;-72
2021/09/24 23:36:02;;;;;;;49.70;46.50;;;;;;;17.88;100.00;101603.78;1940982;74;31551;-73
2021/09/24 23:41:27;;;;;;;49.73;46.37;;;;;;;17.91;100.00;101606.53;1940982;74;31540;-71